Time;durP1;ratioP1;P1;durP2;ratioP2;P2;SDS_P1;SDS_P2;PMS_P1;PMS_P2;Temp;Humidity;BMP_temperature;BMP_pressure;BME280_temperature;BME280_humidity;BME280_pressure;Samples;Min_cycle;Max_cycle;Signal;HPM_P1;HPM_P2
2022/01/03 00:01:32;;;;;;;4.93;1.97;;;11.30;90.40;;;;;;5137616;27;20784;-41
2022/01/03 00:03:58;;;;;;;5.30;2.70;;;11.40;90.20;;;;;;5137852;27;20429;-42
2022/01/03 00:06:24;;;;;;;5.40;1.97;;;11.30;90.10;;;;;;5119625;28;20729;-43
2022/01/03 00:08:50;;;;;;;4.30;2.00;;;11.40;90.10;;;;;;5137165;27;20178;-42
2022/01/03 00:11:20;;;;;;;3.40;2.03;;;11.40;90.10;;;;;;5136895;28;20424;-43
2022/01/03 00:13:48;;;;;;;6.47;2.30;;;11.40;90.10;;;;;;5137973;28;20171;-42
2022/01/03 00:16:14;;;;;;;4.17;1.97;;;11.40;90.10;;;;;;5118970;28;20895;-42
2022/01/03 00:18:41;;;;;;;3.27;1.60;;;11.40;90.20;;;;;;5137214;28;20424;-41
2022/01/03 00:21:11;;;;;;;3.73;1.70;;;11.30;90.20;;;;;;5137403;27;20421;-43
2022/01/03 00:23:39;;;;;;;3.50;1.80;;;11.40;90.10;;;;;;5137488;28;20500;-42
2022/01/03 00:26:07;;;;;;;4.23;2.50;;;11.40;89.70;;;;;;5138681;27;20503;-41
2022/01/03 00:28:39;;;;;;;5.73;2.17;;;11.40;89.90;;;;;;5139165;27;20406;-41
2022/01/03 00:31:05;;;;;;;4.20;1.57;;;11.40;90.00;;;;;;5120907;27;20754;-42
2022/01/03 00:33:32;;;;;;;3.50;1.40;;;11.30;90.00;;;;;;5138630;27;20435;-42
2022/01/03 00:36:03;;;;;;;5.67;1.70;;;11.40;90.00;;;;;;5138829;27;20424;-41
2022/01/03 00:38:34;;;;;;;5.70;2.33;;;11.40;90.10;;;;;;5138792;27;20412;-41
2022/01/03 00:41:03;;;;;;;3.10;1.80;;;11.30;90.00;;;;;;5138859;27;20427;-42
2022/01/03 00:43:29;;;;;;;8.90;2.33;;;11.30;90.10;;;;;;5138709;27;20446;-43
2022/01/03 00:45:56;;;;;;;4.33;1.67;;;11.30;90.30;;;;;;5138633;27;20467;-43
2022/01/03 00:48:22;;;;;;;8.03;2.10;;;11.30;89.90;;;;;;5138321;27;20435;-42
2022/01/03 00:50:49;;;;;;;6.83;1.93;;;11.30;89.90;;;;;;5120590;28;20424;-43
2022/01/03 00:53:15;;;;;;;7.03;1.80;;;11.30;89.80;;;;;;5138195;27;20498;-42
2022/01/03 00:56:00;;;;;;;5.40;2.10;;;11.30;89.90;;;;;;5138603;27;20422;-40
2022/01/03 00:58:29;;;;;;;7.87;2.60;;;11.20;89.80;;;;;;5138636;27;20416;-43
2022/01/03 01:00:57;;;;;;;8.93;1.97;;;11.20;89.80;;;;;;5138651;27;20849;-43
2022/01/03 01:03:28;;;;;;;4.57;1.70;;;11.30;89.90;;;;;;5138221;27;20470;-42
2022/01/03 01:05:54;;;;;;;3.37;2.00;;;11.30;89.90;;;;;;5119817;27;20482;-41
2022/01/03 01:08:22;;;;;;;3.83;2.07;;;11.20;89.70;;;;;;5122781;27;20412;-43
2022/01/03 01:10:51;;;;;;;4.23;1.87;;;11.20;89.80;;;;;;5134451;27;20437;-43
2022/01/03 01:13:17;;;;;;;6.70;2.43;;;11.20;89.60;;;;;;5125810;27;20823;-42
2022/01/03 01:15:43;;;;;;;5.37;2.00;;;11.20;89.80;;;;;;5120164;28;20428;-42
2022/01/03 01:18:09;;;;;;;4.80;2.43;;;11.20;90.00;;;;;;5119537;28;20425;-43
2022/01/03 01:20:46;;;;;;;4.33;1.97;;;11.20;90.00;;;;;;5127209;27;20175;-42
2022/01/03 01:23:12;;;;;;;3.77;2.10;;;11.20;90.00;;;;;;5126717;27;20418;-41
2022/01/03 01:28:24;;;;;;;6.80;1.83;;;11.10;90.10;;;;;;5089507;28;20874;-43
2022/01/03 01:30:53;;;;;;;7.57;1.90;;;11.10;90.20;;;;;;5099600;28;20509;-42
2022/01/03 01:33:19;;;;;;;4.73;1.97;;;11.00;90.20;;;;;;5099881;28;20180;-43
2022/01/03 01:35:50;;;;;;;5.87;1.90;;;11.10;90.30;;;;;;5099781;28;20487;-42
2022/01/03 01:38:18;;;;;;;4.63;1.90;;;11.00;90.30;;;;;;5100768;28;20423;-42
2022/01/03 01:40:56;;;;;;;3.97;1.77;;;11.00;90.40;;;;;;5100367;28;20429;-43
2022/01/03 01:43:40;;;;;;;5.20;2.40;;;11.10;90.50;;;;;;5101028;28;20470;-47
2022/01/03 01:46:11;;;;;;;2.03;1.50;;;11.10;90.50;;;;;;5100561;28;20481;-42
2022/01/03 01:48:39;;;;;;;6.80;2.60;;;11.00;90.50;;;;;;5100863;28;20421;-45
2022/01/03 01:51:08;;;;;;;4.20;1.73;;;11.00;90.70;;;;;;5115188;28;20816;-39
2022/01/03 01:53:53;;;;;;;6.20;1.90;;;11.00;90.80;;;;;;5107235;28;20513;-41
2022/01/03 01:56:24;;;;;;;3.23;1.60;;;10.90;90.90;;;;;;5098703;28;20799;-42
2022/01/03 01:58:59;;;;;;;4.20;2.00;;;10.80;90.90;;;;;;5100346;28;20458;-44
2022/01/03 02:01:40;;;;;;;2.93;1.47;;;10.90;91.00;;;;;;5099708;28;20810;-42
2022/01/03 02:04:30;;;;;;;3.47;1.80;;;10.80;91.00;;;;;;5100189;28;20417;-43
2022/01/03 02:06:57;;;;;;;7.20;2.17;;;10.80;91.20;;;;;;5100580;28;20465;-41
2022/01/03 02:09:43;;;;;;;3.63;1.70;;;10.80;91.20;;;;;;5115665;28;20442;-42
2022/01/03 02:12:16;;;;;;;4.17;1.77;;;10.80;91.30;;;;;;5106084;28;20429;-41
2022/01/03 02:14:42;;;;;;;3.23;1.90;;;10.80;91.40;;;;;;5120190;28;20438;-42
2022/01/03 02:17:10;;;;;;;5.60;2.27;;;10.80;91.60;;;;;;5118247;28;20487;-41
2022/01/03 02:19:40;;;;;;;2.90;2.10;;;10.70;91.70;;;;;;5119650;28;20458;-43
2022/01/03 02:22:06;;;;;;;3.43;1.93;;;10.70;91.80;;;;;;5120211;27;20724;-42
2022/01/03 02:24:31;;;;;;;3.97;2.37;;;10.70;91.90;;;;;;5119137;28;20467;-40
2022/01/03 02:27:01;;;;;;;5.77;2.00;;;10.70;91.90;;;;;;5120000;28;20558;-43
2022/01/03 02:29:26;;;;;;;7.40;1.97;;;10.70;92.00;;;;;;5111367;28;20274;-43
2022/01/03 02:31:52;;;;;;;3.00;1.47;;;10.70;92.00;;;;;;5119141;28;20527;-41
2022/01/03 02:34:18;;;;;;;3.60;1.73;;;10.70;92.00;;;;;;5119297;28;20187;-40
2022/01/03 02:36:44;;;;;;;5.63;1.83;;;10.70;92.00;;;;;;5120186;28;20202;-43
2022/01/03 02:39:10;;;;;;;7.77;1.90;;;10.70;92.20;;;;;;5127465;27;20191;-41
2022/01/03 02:41:37;;;;;;;2.10;1.80;;;10.80;92.20;;;;;;5140377;27;20434;-42
2022/01/03 02:44:03;;;;;;;4.57;1.53;;;10.70;92.30;;;;;;5139833;27;20193;-41
2022/01/03 02:46:28;;;;;;;5.70;1.60;;;10.70;92.40;;;;;;5140221;27;20559;-40
2022/01/03 02:48:54;;;;;;;9.57;3.50;;;10.70;92.40;;;;;;5139834;27;20831;-42
2022/01/03 02:51:20;;;;;;;3.80;1.90;;;10.70;92.40;;;;;;5140728;27;20240;-41
2022/01/03 02:53:46;;;;;;;2.93;1.93;;;10.70;92.50;;;;;;5140465;27;20203;-42
2022/01/03 02:56:11;;;;;;;4.47;1.67;;;10.70;92.50;;;;;;5140222;27;20222;-43
2022/01/03 02:58:37;;;;;;;6.50;1.93;;;10.70;92.40;;;;;;5139966;27;20195;-42
2022/01/03 03:01:03;;;;;;;3.17;1.70;;;10.70;92.30;;;;;;5140340;27;20193;-43
2022/01/03 03:03:29;;;;;;;5.40;2.10;;;10.70;92.30;;;;;;5139894;27;20248;-43
2022/01/03 03:05:55;;;;;;;4.17;1.37;;;10.70;92.30;;;;;;5140213;27;20465;-41
2022/01/03 03:08:21;;;;;;;3.20;2.10;;;10.70;92.40;;;;;;5139720;27;20171;-42
2022/01/03 03:10:47;;;;;;;6.07;2.00;;;10.70;92.40;;;;;;5139552;27;20186;-40
2022/01/03 03:13:12;;;;;;;4.67;1.70;;;10.60;92.30;;;;;;5139766;27;20445;-40
2022/01/03 03:15:38;;;;;;;3.80;1.40;;;10.70;92.30;;;;;;5139414;27;20414;-42
2022/01/03 03:18:04;;;;;;;3.97;1.87;;;10.70;92.30;;;;;;5140138;27;20182;-44
2022/01/03 03:20:31;;;;;;;5.40;1.67;;;10.60;92.30;;;;;;5139594;27;20190;-42
2022/01/03 03:22:58;;;;;;;9.07;2.40;;;10.60;92.30;;;;;;5139471;27;20444;-42
2022/01/03 03:25:32;;;;;;;4.33;1.80;;;10.60;92.00;;;;;;5139425;27;20430;-42
2022/01/03 03:28:04;;;;;;;2.90;1.50;;;10.60;91.90;;;;;;5121519;27;20495;-43
2022/01/03 03:30:32;;;;;;;6.43;2.40;;;10.60;91.90;;;;;;5138939;27;20601;-42
2022/01/03 03:33:07;;;;;;;4.57;1.57;;;10.50;92.00;;;;;;5138972;27;20534;-43
2022/01/03 03:35:34;;;;;;;5.57;1.80;;;10.50;92.10;;;;;;5121668;27;20411;-42
2022/01/03 03:37:59;;;;;;;5.83;1.70;;;10.50;92.20;;;;;;5139528;27;20432;-42
2022/01/03 03:40:25;;;;;;;5.47;1.90;;;10.40;92.20;;;;;;5139309;27;20473;-40
2022/01/03 03:42:53;;;;;;;4.90;1.70;;;10.40;92.20;;;;;;5139383;27;20186;-43
2022/01/03 03:45:19;;;;;;;5.43;1.60;;;10.40;92.30;;;;;;5139223;27;20480;-40
2022/01/03 03:47:45;;;;;;;6.53;1.80;;;10.40;92.00;;;;;;5137977;27;20468;-44
2022/01/03 03:50:11;;;;;;;6.30;2.13;;;10.40;92.00;;;;;;5138951;27;20688;-42
2022/01/03 03:52:37;;;;;;;5.70;1.77;;;10.40;91.80;;;;;;5138947;27;20174;-43
2022/01/03 03:55:03;;;;;;;5.10;1.80;;;10.40;91.70;;;;;;5120636;27;20433;-43
2022/01/03 03:57:28;;;;;;;9.33;1.80;;;10.40;91.70;;;;;;5138474;27;20564;-41
2022/01/03 03:59:57;;;;;;;3.83;2.30;;;10.40;91.70;;;;;;5138546;27;20489;-40
2022/01/03 04:02:22;;;;;;;4.27;1.60;;;10.30;91.70;;;;;;5133761;27;20189;-41
2022/01/03 04:04:48;;;;;;;3.97;1.30;;;10.30;91.80;;;;;;5118334;28;20434;-42
2022/01/03 04:07:16;;;;;;;4.43;1.93;;;10.30;91.80;;;;;;5118107;28;20213;-40
2022/01/03 04:09:41;;;;;;;5.07;1.50;;;10.30;91.80;;;;;;5118401;28;20258;-42
2022/01/03 04:12:07;;;;;;;5.10;1.80;;;10.30;91.90;;;;;;5117752;28;20578;-42
2022/01/03 04:14:33;;;;;;;5.60;2.20;;;10.30;92.00;;;;;;5118070;28;20255;-41
2022/01/03 04:16:59;;;;;;;4.13;1.60;;;10.20;92.00;;;;;;5099953;28;20180;-41
2022/01/03 04:19:24;;;;;;;9.03;2.07;;;10.20;92.40;;;;;;5118076;28;20171;-40
2022/01/03 04:21:50;;;;;;;4.70;1.73;;;10.20;92.10;;;;;;5117872;28;20180;-41
2022/01/03 04:24:16;;;;;;;4.13;1.37;;;10.20;92.10;;;;;;5118163;28;20271;-40
2022/01/03 04:26:43;;;;;;;4.80;1.80;;;10.20;92.20;;;;;;5117954;28;20249;-38
2022/01/03 04:29:08;;;;;;;6.17;2.23;;;10.20;92.30;;;;;;5117979;28;20195;-43
2022/01/03 04:31:34;;;;;;;6.40;3.30;;;10.20;92.30;;;;;;5117817;28;20779;-39
2022/01/03 04:34:00;;;;;;;6.87;2.20;;;10.20;92.40;;;;;;5117980;28;20422;-43
2022/01/03 04:36:27;;;;;;;8.13;2.37;;;10.10;92.40;;;;;;5118328;28;20413;-43
2022/01/03 04:38:53;;;;;;;9.10;1.90;;;10.10;92.40;;;;;;5117238;28;20417;-40
2022/01/03 04:41:21;;;;;;;5.80;2.03;;;10.20;92.40;;;;;;5118033;28;20434;-43
2022/01/03 04:43:47;;;;;;;8.97;2.00;;;10.20;92.40;;;;;;5102708;28;20518;-43
2022/01/03 04:46:13;;;;;;;2.83;1.67;;;10.20;92.40;;;;;;5121057;28;20547;-42
2022/01/03 04:48:41;;;;;;;5.13;1.63;;;10.20;92.30;;;;;;5120929;28;20174;-43
2022/01/03 04:51:07;;;;;;;9.33;1.97;;;10.30;92.20;;;;;;5124661;27;20591;-41
2022/01/03 04:53:37;;;;;;;7.23;1.80;;;10.30;92.00;;;;;;5141727;27;20505;-42
2022/01/03 04:56:03;;;;;;;8.10;1.63;;;10.30;92.10;;;;;;5120917;27;20531;-42
2022/01/03 04:58:29;;;;;;;5.37;2.30;;;10.30;91.90;;;;;;5142749;27;20415;-40
2022/01/03 05:00:54;;;;;;;5.83;1.93;;;10.30;91.80;;;;;;5142087;27;20548;-41
2022/01/03 05:03:20;;;;;;;5.10;1.43;;;10.30;91.90;;;;;;5136153;27;20294;-45
2022/01/03 05:05:46;;;;;;;9.73;2.00;;;10.30;91.90;;;;;;5119987;27;20568;-46
2022/01/03 05:08:11;;;;;;;4.50;1.60;;;10.30;91.70;;;;;;5138843;27;20175;-45
2022/01/03 05:10:37;;;;;;;4.03;1.50;;;10.40;91.50;;;;;;5139676;27;20178;-45
2022/01/03 05:13:03;;;;;;;5.10;1.90;;;10.40;91.40;;;;;;5139870;27;20174;-45
2022/01/03 05:15:29;;;;;;;4.13;1.53;;;10.40;91.20;;;;;;5140159;27;20171;-47
2022/01/03 05:17:54;;;;;;;7.30;2.10;;;10.40;91.00;;;;;;5104643;27;20418;-45
2022/01/03 05:20:20;;;;;;;4.40;1.87;;;10.40;91.00;;;;;;5139254;27;20227;-45
2022/01/03 05:22:45;;;;;;;6.07;1.73;;;10.40;90.90;;;;;;5137817;27;20242;-45
2022/01/03 05:25:11;;;;;;;4.00;2.07;;;10.40;90.90;;;;;;5136975;27;20175;-45
2022/01/03 05:27:39;;;;;;;5.00;2.37;;;10.40;91.00;;;;;;5128432;27;20268;-45
2022/01/03 05:30:06;;;;;;;5.43;2.63;;;10.40;91.00;;;;;;5116689;28;20211;-45
2022/01/03 05:32:32;;;;;;;3.17;1.40;;;10.40;91.00;;;;;;5117004;28;20690;-45
2022/01/03 05:34:57;;;;;;;8.33;2.00;;;10.40;91.00;;;;;;5117671;28;20450;-45
2022/01/03 05:37:26;;;;;;;3.90;1.77;;;10.40;90.90;;;;;;5119041;28;20191;-45
2022/01/03 05:39:54;;;;;;;5.60;1.93;;;10.30;90.80;;;;;;5119450;28;20245;-45
2022/01/03 05:42:22;;;;;;;6.87;2.17;;;10.30;90.90;;;;;;5128946;27;20881;-45
2022/01/03 05:44:48;;;;;;;6.90;1.30;;;10.30;90.90;;;;;;5138932;27;20418;-47
2022/01/03 05:47:16;;;;;;;3.57;1.47;;;10.20;90.90;;;;;;5138956;27;20728;-45
2022/01/03 05:49:42;;;;;;;10.97;2.40;;;10.20;90.90;;;;;;5139943;27;20171;-45
2022/01/03 05:52:08;;;;;;;8.00;2.37;;;10.20;90.90;;;;;;5139568;27;20418;-45
2022/01/03 05:54:33;;;;;;;7.53;2.20;;;10.20;90.90;;;;;;5139988;27;20186;-46
2022/01/03 05:56:59;;;;;;;6.10;1.80;;;10.20;90.80;;;;;;5121464;27;20281;-45
2022/01/03 05:59:27;;;;;;;4.77;1.70;;;10.20;90.80;;;;;;5140613;27;20482;-45
2022/01/03 06:01:54;;;;;;;5.30;1.70;;;10.20;90.90;;;;;;5141044;27;20180;-45
2022/01/03 06:04:34;;;;;;;7.77;1.70;;;10.10;90.90;;;;;;5140119;27;20516;-45
2022/01/03 06:07:02;;;;;;;11.07;2.53;;;10.10;91.10;;;;;;5140820;27;20511;-45
2022/01/03 06:09:28;;;;;;;7.00;2.07;;;10.10;90.80;;;;;;5141173;27;20446;-45
2022/01/03 06:11:54;;;;;;;12.70;2.70;;;10.10;90.80;;;;;;5140918;27;20518;-45
2022/01/03 06:14:21;;;;;;;5.83;1.77;;;10.20;90.70;;;;;;5121710;27;20277;-49
2022/01/03 06:16:48;;;;;;;7.03;1.83;;;10.10;90.70;;;;;;5140663;27;20488;-45
2022/01/03 06:19:15;;;;;;;5.17;1.60;;;10.10;90.90;;;;;;5139156;27;20465;-45
2022/01/03 06:21:41;;;;;;;3.93;1.40;;;10.00;90.90;;;;;;5138932;27;20495;-45
2022/01/03 06:24:15;;;;;;;5.87;1.90;;;10.10;90.80;;;;;;5138662;27;20424;-45
2022/01/03 06:26:41;;;;;;;5.40;2.00;;;10.10;90.90;;;;;;5137839;27;20463;-45
2022/01/03 06:29:08;;;;;;;10.10;3.10;;;10.10;90.80;;;;;;5138924;27;20447;-46
2022/01/03 06:31:34;;;;;;;7.43;2.20;;;10.10;90.80;;;;;;5138150;27;20466;-45
2022/01/03 06:34:00;;;;;;;16.73;3.00;;;10.10;90.90;;;;;;5138791;27;20983;-45
2022/01/03 06:36:26;;;;;;;8.37;2.83;;;10.00;90.80;;;;;;5137891;27;20168;-45
2022/01/03 06:38:53;;;;;;;6.03;1.90;;;10.10;91.00;;;;;;5136343;27;21071;-45
2022/01/03 06:41:18;;;;;;;7.30;2.10;;;10.10;91.00;;;;;;5117928;27;20421;-45
2022/01/03 06:43:44;;;;;;;4.37;2.17;;;10.10;91.10;;;;;;5118048;28;20519;-45
2022/01/03 06:46:10;;;;;;;4.17;1.60;;;10.00;91.00;;;;;;5117817;28;20198;-45
2022/01/03 06:48:35;;;;;;;6.30;1.50;;;10.10;91.20;;;;;;5117842;28;20171;-45
2022/01/03 06:51:01;;;;;;;6.57;2.77;;;10.00;91.30;;;;;;5118443;28;20188;-44
2022/01/03 06:53:27;;;;;;;3.13;1.43;;;10.00;91.60;;;;;;5117897;28;20177;-45
2022/01/03 06:55:53;;;;;;;9.07;2.20;;;10.00;91.90;;;;;;5118728;28;20703;-45
2022/01/03 06:58:18;;;;;;;6.93;2.00;;;9.90;92.80;;;;;;5119225;28;20193;-45
2022/01/03 07:00:44;;;;;;;7.53;2.17;;;9.90;93.10;;;;;;5123463;27;20190;-45
2022/01/03 07:03:09;;;;;;;10.83;3.27;;;9.90;93.30;;;;;;5138325;27;20595;-45
2022/01/03 07:05:35;;;;;;;9.03;2.27;;;9.90;93.70;;;;;;5137853;27;20179;-36
2022/01/03 07:08:01;;;;;;;7.87;2.23;;;9.80;93.90;;;;;;5139113;27;20661;-36
2022/01/03 07:10:30;;;;;;;5.27;2.30;;;9.70;94.30;;;;;;5139133;27;20167;-36
2022/01/03 07:12:56;;;;;;;4.30;2.10;;;9.80;94.60;;;;;;5138755;27;20171;-36
2022/01/03 07:20:52;;;;;;;8.77;2.77;;;9.80;95.00;;;;;;5116847;28;20420;-36
2022/01/03 07:23:19;;;;;;;6.67;2.03;;;9.80;95.10;;;;;;5099582;28;20414;-36
2022/01/03 07:25:45;;;;;;;8.20;2.50;;;9.80;95.20;;;;;;5122432;27;20522;-36
2022/01/03 07:28:12;;;;;;;6.63;2.50;;;9.80;95.30;;;;;;5136616;27;20426;-37
2022/01/03 07:30:38;;;;;;;5.93;1.63;;;9.80;95.30;;;;;;5118889;27;20459;-37
2022/01/03 07:33:03;;;;;;;5.20;1.83;;;9.80;95.30;;;;;;5137095;27;20429;-37
2022/01/03 07:35:29;;;;;;;7.10;1.97;;;9.80;95.40;;;;;;5122421;27;20186;-37
2022/01/03 07:37:55;;;;;;;8.37;3.00;;;9.80;95.30;;;;;;5115293;28;20229;-37
2022/01/03 07:40:21;;;;;;;7.20;1.97;;;9.80;95.40;;;;;;5118983;27;20212;-36
2022/01/03 07:42:46;;;;;;;5.97;2.00;;;9.80;95.30;;;;;;5117160;27;20218;-36
2022/01/03 07:45:12;;;;;;;4.97;2.30;;;9.80;95.70;;;;;;5117443;27;20941;-37
2022/01/03 07:47:38;;;;;;;6.67;2.40;;;9.80;96.00;;;;;;5125090;27;20227;-36
2022/01/03 07:50:10;;;;;;;3.73;2.33;;;9.80;96.20;;;;;;5125816;27;20711;-36
2022/01/03 07:52:36;;;;;;;4.90;1.87;;;9.80;96.30;;;;;;5135682;27;20427;-36
2022/01/03 07:55:05;;;;;;;5.33;2.13;;;9.80;96.40;;;;;;5120585;27;20461;-37
2022/01/03 07:57:31;;;;;;;6.90;2.27;;;9.70;96.50;;;;;;5116293;28;20695;-35
2022/01/03 07:59:57;;;;;;;7.80;2.40;;;9.70;96.30;;;;;;5122815;27;20441;-37
2022/01/03 08:02:23;;;;;;;4.60;1.80;;;9.70;96.20;;;;;;5129459;27;20447;-35
2022/01/03 08:04:49;;;;;;;5.37;1.90;;;9.80;96.00;;;;;;5117683;28;20485;-38
2022/01/03 08:07:15;;;;;;;7.00;2.27;;;9.80;95.90;;;;;;5124876;27;20460;-36
2022/01/03 08:09:40;;;;;;;5.13;2.10;;;9.80;96.00;;;;;;5118048;28;20176;-38
2022/01/03 08:12:07;;;;;;;6.50;2.03;;;9.80;95.90;;;;;;5117763;28;20585;-37
2022/01/03 08:14:33;;;;;;;6.10;2.40;;;9.90;95.70;;;;;;5117871;28;20472;-37
2022/01/03 08:16:59;;;;;;;5.27;2.23;;;9.90;95.60;;;;;;5118682;28;20523;-37
2022/01/03 08:19:25;;;;;;;6.90;2.40;;;9.90;95.40;;;;;;5138990;28;20211;-35
2022/01/03 08:21:51;;;;;;;5.40;1.80;;;9.90;95.40;;;;;;5116429;28;20552;-36
2022/01/03 08:24:17;;;;;;;4.57;2.20;;;10.00;94.60;;;;;;5128592;28;20446;-37
2022/01/03 08:26:44;;;;;;;4.60;2.63;;;10.00;94.70;;;;;;5137903;28;20540;-37
2022/01/03 08:29:10;;;;;;;5.33;1.83;;;10.10;94.60;;;;;;5138534;28;20409;-37
2022/01/03 08:31:37;;;;;;;5.40;2.57;;;10.10;94.30;;;;;;5138076;28;20509;-36
2022/01/03 08:34:06;;;;;;;7.30;2.20;;;10.10;94.10;;;;;;5117804;28;20432;-37
2022/01/03 08:36:32;;;;;;;5.53;2.10;;;10.10;94.10;;;;;;5136217;28;20817;-37
2022/01/03 08:39:00;;;;;;;3.50;2.17;;;10.20;93.90;;;;;;5136492;28;20520;-37
2022/01/03 08:41:26;;;;;;;7.83;3.10;;;10.20;94.00;;;;;;5136188;28;20831;-36
2022/01/03 08:43:51;;;;;;;12.17;3.37;;;10.30;93.90;;;;;;5134604;28;20508;-36
2022/01/03 08:46:19;;;;;;;6.70;2.23;;;10.40;93.70;;;;;;5134683;28;20598;-36
2022/01/03 08:48:45;;;;;;;9.30;2.57;;;10.40;93.60;;;;;;5116655;28;20432;-37
2022/01/03 08:51:10;;;;;;;3.13;1.90;;;10.50;93.60;;;;;;5116482;28;20419;-36
2022/01/03 08:53:36;;;;;;;4.93;2.30;;;10.50;93.30;;;;;;5134730;28;20416;-36
2022/01/03 08:56:03;;;;;;;4.23;1.70;;;10.60;93.10;;;;;;5135037;28;20218;-37
2022/01/03 08:58:29;;;;;;;6.77;2.20;;;10.70;92.80;;;;;;5117310;28;20526;-36
2022/01/03 09:00:54;;;;;;;4.90;2.07;;;10.80;92.70;;;;;;5136564;28;20506;-35
2022/01/03 09:03:20;;;;;;;6.23;2.30;;;10.70;92.50;;;;;;5135971;28;20551;-37
2022/01/03 09:05:46;;;;;;;7.03;1.97;;;10.70;92.20;;;;;;5117466;28;20168;-37
2022/01/03 09:08:13;;;;;;;3.87;1.50;;;10.80;92.40;;;;;;5135206;28;20187;-36
2022/01/03 09:10:39;;;;;;;3.90;1.70;;;10.70;92.30;;;;;;5135344;28;20581;-36
2022/01/03 09:13:04;;;;;;;6.73;1.70;;;10.70;92.30;;;;;;5133636;28;20420;-37
2022/01/03 09:15:31;;;;;;;7.30;2.20;;;10.80;92.00;;;;;;5134945;28;20424;-37
2022/01/03 09:17:57;;;;;;;4.80;2.10;;;10.80;92.00;;;;;;5098730;28;20349;-38
2022/01/03 09:20:23;;;;;;;5.20;1.70;;;10.80;92.00;;;;;;5134043;28;20573;-38
2022/01/03 09:22:51;;;;;;;10.87;2.30;;;10.80;92.00;;;;;;5135229;28;20196;-38
2022/01/03 09:30:35;;;;;;;3.70;1.80;;;10.90;91.70;;;;;;5140424;27;20239;-37
2022/01/03 09:33:01;;;;;;;12.30;2.27;;;11.00;91.80;;;;;;5140715;27;20416;-37
2022/01/03 09:35:27;;;;;;;4.40;1.87;;;10.90;91.60;;;;;;5140345;27;20438;-37
2022/01/03 09:37:52;;;;;;;5.13;1.80;;;11.00;91.80;;;;;;5140174;27;20427;-37
2022/01/03 09:40:20;;;;;;;6.70;2.37;;;10.90;91.80;;;;;;5139396;27;20403;-37
2022/01/03 09:42:50;;;;;;;3.83;2.00;;;10.90;91.80;;;;;;5121212;27;20519;-38
2022/01/03 09:45:17;;;;;;;6.73;1.67;;;10.90;91.80;;;;;;5138935;27;20416;-37
2022/01/03 09:47:44;;;;;;;8.20;2.30;;;10.90;91.80;;;;;;5139449;27;20483;-37
2022/01/03 09:50:13;;;;;;;5.67;2.33;;;10.90;91.90;;;;;;5140118;27;20440;-37
2022/01/03 09:52:41;;;;;;;5.07;2.13;;;10.90;91.90;;;;;;5140355;27;20456;-37
2022/01/03 09:55:07;;;;;;;5.97;2.10;;;11.00;91.90;;;;;;5122261;27;20412;-39
2022/01/03 09:57:33;;;;;;;5.07;1.80;;;11.00;91.90;;;;;;5122526;27;20874;-39
2022/01/03 10:00:00;;;;;;;4.90;1.50;;;10.90;92.00;;;;;;5140790;27;20507;-38
2022/01/03 10:02:26;;;;;;;5.07;2.13;;;11.00;92.00;;;;;;5139764;27;20627;-37
2022/01/03 10:04:52;;;;;;;6.60;2.33;;;11.00;92.00;;;;;;5139797;27;20898;-36
2022/01/03 10:07:19;;;;;;;8.17;2.20;;;11.10;92.10;;;;;;5139914;27;20570;-38
2022/01/03 10:09:46;;;;;;;10.43;2.47;;;11.10;91.90;;;;;;5121674;27;20175;-38
2022/01/03 10:12:13;;;;;;;6.23;2.50;;;11.20;92.00;;;;;;5120900;27;20820;-38
2022/01/03 10:14:40;;;;;;;3.93;2.00;;;11.20;92.10;;;;;;5137949;27;20830;-37
2022/01/03 10:17:06;;;;;;;5.80;2.50;;;11.20;92.00;;;;;;5138523;27;20428;-38
2022/01/03 10:19:48;;;;;;;4.93;1.90;;;11.20;92.10;;;;;;5118897;27;20411;-44
2022/01/03 10:22:25;;;;;;;3.67;1.90;;;11.20;92.20;;;;;;5136375;27;20780;-45
2022/01/03 10:24:52;;;;;;;4.30;2.10;;;11.20;92.10;;;;;;5115251;27;20473;-45
2022/01/03 10:27:19;;;;;;;4.00;2.27;;;11.20;92.30;;;;;;5134140;27;20760;-45
2022/01/03 10:29:56;;;;;;;6.77;2.07;;;11.10;92.30;;;;;;5135654;27;20503;-46
2022/01/03 10:32:30;;;;;;;5.93;2.13;;;11.10;92.40;;;;;;5117833;27;20432;-46
2022/01/03 10:34:57;;;;;;;4.33;1.90;;;11.10;92.40;;;;;;5138227;27;20819;-46
2022/01/03 10:37:35;;;;;;;9.37;2.20;;;11.10;92.40;;;;;;5137559;27;20435;-43
2022/01/03 10:40:19;;;;;;;6.83;1.90;;;11.10;92.60;;;;;;5119940;27;20469;-45
2022/01/03 10:42:45;;;;;;;4.93;2.10;;;11.00;92.60;;;;;;5137745;27;20838;-45
2022/01/03 10:45:10;;;;;;;4.90;1.50;;;11.10;92.70;;;;;;5137021;27;20412;-45
2022/01/03 10:47:37;;;;;;;2.80;1.60;;;11.10;92.80;;;;;;5136576;27;20208;-45
2022/01/03 10:50:16;;;;;;;4.23;1.67;;;11.10;92.70;;;;;;5136451;27;20335;-45
2022/01/03 10:52:42;;;;;;;7.10;1.80;;;11.10;92.60;;;;;;5136163;27;20425;-45
2022/01/03 10:55:15;;;;;;;7.63;2.20;;;11.10;92.70;;;;;;5135958;27;20893;-46
2022/01/03 10:57:57;;;;;;;5.77;2.53;;;11.20;92.60;;;;;;5101292;27;20432;-44
2022/01/03 11:00:25;;;;;;;4.50;1.90;;;11.10;92.30;;;;;;5136520;27;20440;-45
2022/01/03 11:03:28;;;;;;;7.07;1.93;;;11.10;92.40;;;;;;5135514;27;20422;-44
2022/01/03 11:06:00;;;;;;;5.27;1.90;;;11.20;92.50;;;;;;5067035;27;20590;-44
2022/01/03 11:11:13;;;;;;;7.40;2.07;;;11.50;91.90;;;;;;5137908;27;20407;-44
2022/01/03 11:13:41;;;;;;;6.30;1.77;;;11.50;91.80;;;;;;5138934;27;20421;-37
2022/01/03 11:16:08;;;;;;;5.20;2.20;;;11.40;91.70;;;;;;5120825;27;20435;-37
2022/01/03 11:18:39;;;;;;;4.70;1.87;;;11.50;91.80;;;;;;5136057;27;20755;-36
2022/01/03 11:21:15;;;;;;;9.00;1.77;;;11.40;91.50;;;;;;5118684;27;20485;-36
2022/01/03 11:23:46;;;;;;;4.73;1.87;;;11.50;91.70;;;;;;5137226;27;20444;-37
2022/01/03 11:26:14;;;;;;;10.10;1.70;;;11.50;91.60;;;;;;5118689;27;20465;-39
2022/01/03 11:28:40;;;;;;;5.20;1.80;;;11.50;91.40;;;;;;5117127;28;20810;-38
2022/01/03 11:31:07;;;;;;;5.67;1.90;;;11.60;91.20;;;;;;5117134;28;20548;-38
2022/01/03 11:33:35;;;;;;;6.00;2.47;;;11.50;90.90;;;;;;5116326;28;20540;-37
2022/01/03 11:36:02;;;;;;;5.27;1.83;;;11.50;91.10;;;;;;5117740;28;20497;-37
2022/01/03 11:38:30;;;;;;;4.27;1.70;;;11.50;91.00;;;;;;5098117;28;20570;-37
2022/01/03 11:41:04;;;;;;;6.03;1.97;;;11.60;90.50;;;;;;5117066;28;20424;-38
2022/01/03 11:43:30;;;;;;;6.23;2.13;;;11.60;90.50;;;;;;5099812;28;20423;-40
2022/01/03 11:45:57;;;;;;;5.23;2.03;;;11.70;90.50;;;;;;5081227;28;20414;-37
2022/01/03 11:48:26;;;;;;;5.10;1.80;;;11.60;90.20;;;;;;5096511;28;20515;-35
2022/01/03 11:50:53;;;;;;;2.90;1.23;;;11.60;90.30;;;;;;5115304;28;20581;-37
2022/01/03 11:53:23;;;;;;;7.50;1.80;;;11.50;89.00;;;;;;5115227;28;20426;-37
2022/01/03 11:55:53;;;;;;;4.67;1.70;;;11.50;88.70;;;;;;5097906;28;20482;-37
2022/01/03 11:58:43;;;;;;;9.00;2.70;;;11.50;88.40;;;;;;5115068;28;20443;-37
2022/01/03 12:03:56;;;;;;;4.00;2.00;;;11.50;88.20;;;;;;5116469;28;20743;-38
2022/01/03 12:06:26;;;;;;;4.67;1.43;;;11.50;88.60;;;;;;5098957;28;20490;-36
2022/01/03 12:08:57;;;;;;;5.20;2.17;;;11.60;88.70;;;;;;5116977;28;20684;-37
2022/01/03 12:11:28;;;;;;;4.70;1.60;;;11.60;88.90;;;;;;5097122;28;20404;-37
2022/01/03 12:13:59;;;;;;;5.50;1.90;;;11.60;88.50;;;;;;5114375;28;20837;-38
2022/01/03 12:16:49;;;;;;;5.80;1.90;;;11.40;88.20;;;;;;5096733;28;20538;-36
2022/01/03 12:19:33;;;;;;;5.03;1.47;;;11.30;88.50;;;;;;5115215;28;20405;-38
2022/01/03 12:22:06;;;;;;;6.37;1.67;;;11.30;89.20;;;;;;5095207;28;20510;-38
2022/01/03 12:24:32;;;;;;;4.30;1.93;;;11.40;89.60;;;;;;5112401;28;20744;-37
2022/01/03 12:27:10;;;;;;;5.07;1.80;;;11.40;89.80;;;;;;5111782;28;20564;-38
2022/01/03 12:29:54;;;;;;;7.60;2.47;;;11.50;90.10;;;;;;5113127;28;20166;-36
2022/01/03 12:32:23;;;;;;;3.53;1.77;;;11.50;90.30;;;;;;5096503;28;20470;-38
2022/01/03 12:35:15;;;;;;;7.87;2.13;;;11.60;90.10;;;;;;5114369;28;20403;-37
2022/01/03 12:38:08;;;;;;;8.60;2.30;;;11.50;89.60;;;;;;5113767;28;20507;-37
2022/01/03 12:40:48;;;;;;;4.67;1.70;;;11.60;89.90;;;;;;5116744;28;20398;-37
2022/01/03 12:43:15;;;;;;;3.47;1.50;;;11.60;88.60;;;;;;5117094;28;20535;-38
2022/01/03 12:45:44;;;;;;;3.37;1.50;;;11.70;88.30;;;;;;5116189;28;20745;-38
2022/01/03 12:48:10;;;;;;;4.10;1.50;;;11.70;87.80;;;;;;5115832;28;20473;-38
2022/01/03 12:50:37;;;;;;;4.10;1.60;;;11.80;86.90;;;;;;5116054;28;20568;-38
2022/01/03 12:53:04;;;;;;;2.60;1.30;;;11.70;86.70;;;;;;5097864;28;20184;-39
2022/01/03 12:55:55;;;;;;;4.43;1.87;;;11.80;86.30;;;;;;5116074;28;20404;-38
2022/01/03 12:58:20;;;;;;;3.10;1.40;;;11.80;86.00;;;;;;5115743;28;20427;-38
2022/01/03 13:00:52;;;;;;;3.00;1.50;;;11.90;85.70;;;;;;5113776;28;20416;-38
2022/01/03 13:03:54;;;;;;;3.30;1.40;;;11.80;84.30;;;;;;5117611;28;20242;-38
2022/01/03 13:06:28;;;;;;;2.53;1.30;;;11.90;84.40;;;;;;5117703;28;20463;-38
2022/01/03 13:08:54;;;;;;;3.60;1.40;;;11.90;83.80;;;;;;5119502;28;20520;-36
2022/01/03 13:11:22;;;;;;;2.70;1.43;;;12.00;83.40;;;;;;5119806;28;20468;-37
2022/01/03 13:13:50;;;;;;;5.00;1.53;;;12.10;83.20;;;;;;5119983;28;20177;-38